sensor_id;sensor_type;location;lat;lon;timestamp;P1;durP1;ratioP1;P2;durP2;ratioP2
49177;SDS011;35016;55.674;37.468;2023-05-15T00:01:45;6.32;;;2.45;;
49177;SDS011;35016;55.674;37.468;2023-05-15T00:04:12;6.82;;;2.63;;
49177;SDS011;35016;55.674;37.468;2023-05-15T00:06:40;8.27;;;3.42;;
49177;SDS011;35016;55.674;37.468;2023-05-15T00:09:07;6.88;;;2.45;;
49177;SDS011;35016;55.674;37.468;2023-05-15T00:11:34;8.40;;;3.67;;
49177;SDS011;35016;55.674;37.468;2023-05-15T00:14:01;6.88;;;2.70;;
49177;SDS011;35016;55.674;37.468;2023-05-15T00:16:28;9.43;;;2.30;;
49177;SDS011;35016;55.674;37.468;2023-05-15T00:18:56;6.82;;;2.60;;
49177;SDS011;35016;55.674;37.468;2023-05-15T00:21:23;7.93;;;2.90;;
49177;SDS011;35016;55.674;37.468;2023-05-15T00:23:50;8.82;;;3.05;;
49177;SDS011;35016;55.674;37.468;2023-05-15T00:26:21;7.05;;;2.72;;
49177;SDS011;35016;55.674;37.468;2023-05-15T00:28:49;7.43;;;2.45;;
49177;SDS011;35016;55.674;37.468;2023-05-15T00:31:17;8.43;;;3.30;;
49177;SDS011;35016;55.674;37.468;2023-05-15T00:33:44;6.55;;;2.75;;
49177;SDS011;35016;55.674;37.468;2023-05-15T00:36:11;7.85;;;2.90;;
49177;SDS011;35016;55.674;37.468;2023-05-15T00:38:39;8.27;;;3.33;;
49177;SDS011;35016;55.674;37.468;2023-05-15T00:41:06;6.90;;;2.70;;
49177;SDS011;35016;55.674;37.468;2023-05-15T00:43:35;8.63;;;3.38;;
49177;SDS011;35016;55.674;37.468;2023-05-15T00:46:05;8.57;;;3.25;;
49177;SDS011;35016;55.674;37.468;2023-05-15T00:48:33;8.40;;;2.78;;
49177;SDS011;35016;55.674;37.468;2023-05-15T00:51:01;9.98;;;3.13;;
49177;SDS011;35016;55.674;37.468;2023-05-15T00:53:28;8.75;;;3.10;;
49177;SDS011;35016;55.674;37.468;2023-05-15T00:55:56;7.68;;;3.60;;
49177;SDS011;35016;55.674;37.468;2023-05-15T00:58:26;8.05;;;3.33;;
49177;SDS011;35016;55.674;37.468;2023-05-15T01:00:54;8.07;;;2.53;;
49177;SDS011;35016;55.674;37.468;2023-05-15T01:03:22;7.75;;;3.15;;
49177;SDS011;35016;55.674;37.468;2023-05-15T01:05:50;8.77;;;3.60;;
49177;SDS011;35016;55.674;37.468;2023-05-15T01:10:49;7.05;;;3.15;;
49177;SDS011;35016;55.674;37.468;2023-05-15T01:13:18;8.38;;;3.03;;
49177;SDS011;35016;55.674;37.468;2023-05-15T01:15:50;8.00;;;3.22;;
49177;SDS011;35016;55.674;37.468;2023-05-15T01:18:17;8.68;;;3.78;;
49177;SDS011;35016;55.674;37.468;2023-05-15T01:20:46;7.88;;;3.45;;
49177;SDS011;35016;55.674;37.468;2023-05-15T01:28:58;10.65;;;3.67;;
49177;SDS011;35016;55.674;37.468;2023-05-15T01:34:01;8.07;;;2.88;;
49177;SDS011;35016;55.674;37.468;2023-05-15T01:36:36;9.02;;;4.05;;
49177;SDS011;35016;55.674;37.468;2023-05-15T01:39:08;8.50;;;2.92;;
49177;SDS011;35016;55.674;37.468;2023-05-15T01:44:53;10.35;;;4.13;;
49177;SDS011;35016;55.674;37.468;2023-05-15T01:47:23;9.73;;;3.83;;
49177;SDS011;35016;55.674;37.468;2023-05-15T01:50:00;11.50;;;3.65;;
49177;SDS011;35016;55.674;37.468;2023-05-15T01:52:33;11.35;;;4.25;;
49177;SDS011;35016;55.674;37.468;2023-05-15T01:55:02;9.73;;;3.95;;
49177;SDS011;35016;55.674;37.468;2023-05-15T01:57:32;11.75;;;4.20;;
49177;SDS011;35016;55.674;37.468;2023-05-15T02:00:02;8.13;;;4.45;;
49177;SDS011;35016;55.674;37.468;2023-05-15T02:02:40;9.93;;;4.72;;
49177;SDS011;35016;55.674;37.468;2023-05-15T02:05:09;10.45;;;4.53;;
49177;SDS011;35016;55.674;37.468;2023-05-15T02:07:38;8.73;;;4.30;;
49177;SDS011;35016;55.674;37.468;2023-05-15T02:10:08;9.60;;;4.38;;
49177;SDS011;35016;55.674;37.468;2023-05-15T02:12:38;10.27;;;5.53;;
49177;SDS011;35016;55.674;37.468;2023-05-15T02:15:10;9.30;;;4.90;;
49177;SDS011;35016;55.674;37.468;2023-05-15T02:17:39;10.30;;;5.20;;
49177;SDS011;35016;55.674;37.468;2023-05-15T02:20:07;11.10;;;5.78;;
49177;SDS011;35016;55.674;37.468;2023-05-15T02:22:36;9.98;;;5.43;;
49177;SDS011;35016;55.674;37.468;2023-05-15T02:25:04;10.95;;;6.05;;
49177;SDS011;35016;55.674;37.468;2023-05-15T02:27:54;10.00;;;5.47;;
49177;SDS011;35016;55.674;37.468;2023-05-15T02:30:32;11.95;;;5.70;;
49177;SDS011;35016;55.674;37.468;2023-05-15T02:38:51;9.13;;;5.10;;
49177;SDS011;35016;55.674;37.468;2023-05-15T02:41:19;11.70;;;6.00;;
49177;SDS011;35016;55.674;37.468;2023-05-15T02:43:49;10.73;;;5.55;;
49177;SDS011;35016;55.674;37.468;2023-05-15T02:46:18;10.02;;;6.20;;
49177;SDS011;35016;55.674;37.468;2023-05-15T02:48:47;10.88;;;5.75;;
49177;SDS011;35016;55.674;37.468;2023-05-15T02:51:14;10.30;;;5.47;;
49177;SDS011;35016;55.674;37.468;2023-05-15T02:53:42;9.82;;;6.15;;
49177;SDS011;35016;55.674;37.468;2023-05-15T02:56:09;13.57;;;6.95;;
49177;SDS011;35016;55.674;37.468;2023-05-15T02:58:36;12.13;;;6.50;;
49177;SDS011;35016;55.674;37.468;2023-05-15T03:01:05;10.75;;;6.05;;
49177;SDS011;35016;55.674;37.468;2023-05-15T03:03:32;11.38;;;5.50;;
49177;SDS011;35016;55.674;37.468;2023-05-15T03:06:00;11.80;;;6.63;;
49177;SDS011;35016;55.674;37.468;2023-05-15T03:08:27;11.10;;;6.72;;
49177;SDS011;35016;55.674;37.468;2023-05-15T03:10:54;11.27;;;5.57;;
49177;SDS011;35016;55.674;37.468;2023-05-15T03:13:22;12.57;;;7.50;;
49177;SDS011;35016;55.674;37.468;2023-05-15T03:15:48;10.45;;;6.15;;
49177;SDS011;35016;55.674;37.468;2023-05-15T03:18:16;9.98;;;5.60;;
49177;SDS011;35016;55.674;37.468;2023-05-15T03:20:46;9.77;;;6.15;;
49177;SDS011;35016;55.674;37.468;2023-05-15T03:23:14;12.48;;;5.82;;
49177;SDS011;35016;55.674;37.468;2023-05-15T03:25:41;12.25;;;5.97;;
49177;SDS011;35016;55.674;37.468;2023-05-15T03:28:09;15.00;;;6.97;;
49177;SDS011;35016;55.674;37.468;2023-05-15T03:30:37;11.45;;;6.72;;
49177;SDS011;35016;55.674;37.468;2023-05-15T03:33:04;11.20;;;7.50;;
49177;SDS011;35016;55.674;37.468;2023-05-15T03:35:32;11.02;;;6.82;;
49177;SDS011;35016;55.674;37.468;2023-05-15T03:38:00;12.25;;;7.85;;
49177;SDS011;35016;55.674;37.468;2023-05-15T03:40:27;11.60;;;7.38;;
49177;SDS011;35016;55.674;37.468;2023-05-15T03:42:56;11.70;;;6.32;;
49177;SDS011;35016;55.674;37.468;2023-05-15T03:45:23;11.85;;;7.20;;
49177;SDS011;35016;55.674;37.468;2023-05-15T03:47:51;12.45;;;6.75;;
49177;SDS011;35016;55.674;37.468;2023-05-15T03:50:19;12.68;;;7.18;;
49177;SDS011;35016;55.674;37.468;2023-05-15T03:52:46;11.35;;;6.97;;
49177;SDS011;35016;55.674;37.468;2023-05-15T03:55:13;13.65;;;7.28;;
49177;SDS011;35016;55.674;37.468;2023-05-15T03:57:40;13.25;;;5.78;;
49177;SDS011;35016;55.674;37.468;2023-05-15T04:00:08;11.38;;;6.75;;
49177;SDS011;35016;55.674;37.468;2023-05-15T04:02:39;13.50;;;6.40;;
49177;SDS011;35016;55.674;37.468;2023-05-15T04:05:07;13.38;;;6.78;;
49177;SDS011;35016;55.674;37.468;2023-05-15T04:07:35;9.65;;;5.60;;
49177;SDS011;35016;55.674;37.468;2023-05-15T04:10:03;9.95;;;6.07;;
49177;SDS011;35016;55.674;37.468;2023-05-15T04:12:34;10.90;;;6.22;;
49177;SDS011;35016;55.674;37.468;2023-05-15T04:15:15;10.75;;;5.60;;
49177;SDS011;35016;55.674;37.468;2023-05-15T04:17:51;9.73;;;5.32;;
49177;SDS011;35016;55.674;37.468;2023-05-15T04:20:20;10.05;;;5.00;;
49177;SDS011;35016;55.674;37.468;2023-05-15T04:22:49;9.55;;;4.47;;
49177;SDS011;35016;55.674;37.468;2023-05-15T04:25:17;9.45;;;3.97;;
49177;SDS011;35016;55.674;37.468;2023-05-15T04:27:46;9.15;;;4.30;;
49177;SDS011;35016;55.674;37.468;2023-05-15T04:30:15;9.00;;;3.55;;
49177;SDS011;35016;55.674;37.468;2023-05-15T04:32:43;9.27;;;3.95;;
49177;SDS011;35016;55.674;37.468;2023-05-15T04:35:10;7.57;;;3.03;;
49177;SDS011;35016;55.674;37.468;2023-05-15T04:37:39;8.73;;;2.75;;
49177;SDS011;35016;55.674;37.468;2023-05-15T04:40:08;7.35;;;2.83;;
49177;SDS011;35016;55.674;37.468;2023-05-15T04:42:35;5.30;;;2.05;;
49177;SDS011;35016;55.674;37.468;2023-05-15T04:45:05;6.80;;;3.00;;
49177;SDS011;35016;55.674;37.468;2023-05-15T04:47:34;9.65;;;3.20;;
49177;SDS011;35016;55.674;37.468;2023-05-15T04:50:01;7.57;;;3.22;;
49177;SDS011;35016;55.674;37.468;2023-05-15T04:52:32;7.32;;;2.55;;
49177;SDS011;35016;55.674;37.468;2023-05-15T04:55:00;8.65;;;2.78;;
49177;SDS011;35016;55.674;37.468;2023-05-15T04:57:30;7.20;;;2.80;;
49177;SDS011;35016;55.674;37.468;2023-05-15T04:59:57;7.75;;;2.90;;
49177;SDS011;35016;55.674;37.468;2023-05-15T05:02:24;7.95;;;3.00;;
49177;SDS011;35016;55.674;37.468;2023-05-15T05:04:52;7.60;;;3.15;;
49177;SDS011;35016;55.674;37.468;2023-05-15T05:07:19;7.80;;;3.13;;
49177;SDS011;35016;55.674;37.468;2023-05-15T05:09:46;9.95;;;4.25;;
49177;SDS011;35016;55.674;37.468;2023-05-15T05:12:13;8.70;;;3.53;;
49177;SDS011;35016;55.674;37.468;2023-05-15T05:14:42;8.45;;;2.90;;
49177;SDS011;35016;55.674;37.468;2023-05-15T05:17:10;7.65;;;3.20;;
49177;SDS011;35016;55.674;37.468;2023-05-15T05:19:37;6.72;;;2.75;;
49177;SDS011;35016;55.674;37.468;2023-05-15T05:22:04;7.22;;;2.92;;
49177;SDS011;35016;55.674;37.468;2023-05-15T05:24:32;7.13;;;2.65;;
49177;SDS011;35016;55.674;37.468;2023-05-15T05:27:01;7.82;;;2.90;;
49177;SDS011;35016;55.674;37.468;2023-05-15T05:29:29;8.18;;;3.03;;
49177;SDS011;35016;55.674;37.468;2023-05-15T05:31:57;7.03;;;2.95;;
49177;SDS011;35016;55.674;37.468;2023-05-15T05:34:24;7.80;;;2.60;;
49177;SDS011;35016;55.674;37.468;2023-05-15T05:36:52;8.90;;;3.42;;
49177;SDS011;35016;55.674;37.468;2023-05-15T05:39:19;8.57;;;3.22;;
49177;SDS011;35016;55.674;37.468;2023-05-15T05:41:46;7.13;;;2.83;;
49177;SDS011;35016;55.674;37.468;2023-05-15T05:44:14;6.15;;;2.30;;
49177;SDS011;35016;55.674;37.468;2023-05-15T05:46:41;7.22;;;2.55;;
49177;SDS011;35016;55.674;37.468;2023-05-15T05:49:08;8.07;;;2.65;;
49177;SDS011;35016;55.674;37.468;2023-05-15T05:51:35;7.78;;;2.72;;
49177;SDS011;35016;55.674;37.468;2023-05-15T05:54:02;8.73;;;3.00;;
49177;SDS011;35016;55.674;37.468;2023-05-15T05:56:29;7.93;;;2.88;;
49177;SDS011;35016;55.674;37.468;2023-05-15T05:58:56;9.75;;;2.72;;
49177;SDS011;35016;55.674;37.468;2023-05-15T06:01:25;6.35;;;2.35;;
49177;SDS011;35016;55.674;37.468;2023-05-15T06:03:53;8.48;;;2.70;;
49177;SDS011;35016;55.674;37.468;2023-05-15T06:06:21;6.53;;;2.15;;
49177;SDS011;35016;55.674;37.468;2023-05-15T06:08:49;6.32;;;2.40;;
49177;SDS011;35016;55.674;37.468;2023-05-15T06:11:16;7.47;;;3.17;;
49177;SDS011;35016;55.674;37.468;2023-05-15T06:13:43;7.20;;;2.55;;
49177;SDS011;35016;55.674;37.468;2023-05-15T06:16:11;9.30;;;2.70;;
49177;SDS011;35016;55.674;37.468;2023-05-15T06:18:37;7.13;;;2.45;;
49177;SDS011;35016;55.674;37.468;2023-05-15T06:21:05;6.88;;;2.67;;
49177;SDS011;35016;55.674;37.468;2023-05-15T06:23:32;8.02;;;2.63;;
49177;SDS011;35016;55.674;37.468;2023-05-15T06:25:59;9.52;;;2.10;;
49177;SDS011;35016;55.674;37.468;2023-05-15T06:28:27;6.18;;;1.90;;
49177;SDS011;35016;55.674;37.468;2023-05-15T06:30:54;5.90;;;1.98;;
49177;SDS011;35016;55.674;37.468;2023-05-15T06:33:22;9.18;;;2.45;;
49177;SDS011;35016;55.674;37.468;2023-05-15T06:35:49;6.18;;;2.08;;
49177;SDS011;35016;55.674;37.468;2023-05-15T06:38:16;11.48;;;3.30;;
49177;SDS011;35016;55.674;37.468;2023-05-15T06:40:43;7.57;;;2.83;;
49177;SDS011;35016;55.674;37.468;2023-05-15T06:43:10;8.38;;;2.10;;
49177;SDS011;35016;55.674;37.468;2023-05-15T06:45:37;6.47;;;2.28;;
49177;SDS011;35016;55.674;37.468;2023-05-15T06:48:05;5.53;;;2.10;;
49177;SDS011;35016;55.674;37.468;2023-05-15T06:50:32;5.93;;;2.00;;
49177;SDS011;35016;55.674;37.468;2023-05-15T06:52:59;6.57;;;1.63;;
49177;SDS011;35016;55.674;37.468;2023-05-15T06:55:27;4.35;;;1.33;;
49177;SDS011;35016;55.674;37.468;2023-05-15T06:57:54;4.13;;;1.38;;
49177;SDS011;35016;55.674;37.468;2023-05-15T07:00:21;6.85;;;2.10;;
49177;SDS011;35016;55.674;37.468;2023-05-15T07:02:48;3.88;;;1.35;;
49177;SDS011;35016;55.674;37.468;2023-05-15T07:05:15;6.28;;;2.00;;
49177;SDS011;35016;55.674;37.468;2023-05-15T07:07:42;4.72;;;1.33;;
49177;SDS011;35016;55.674;37.468;2023-05-15T07:10:10;7.40;;;1.40;;
49177;SDS011;35016;55.674;37.468;2023-05-15T07:12:37;8.32;;;1.85;;
49177;SDS011;35016;55.674;37.468;2023-05-15T07:15:04;6.80;;;1.75;;
49177;SDS011;35016;55.674;37.468;2023-05-15T07:17:32;4.85;;;1.65;;
49177;SDS011;35016;55.674;37.468;2023-05-15T07:20:00;6.72;;;1.92;;
49177;SDS011;35016;55.674;37.468;2023-05-15T07:22:29;5.38;;;1.98;;
49177;SDS011;35016;55.674;37.468;2023-05-15T07:24:59;5.13;;;1.80;;
49177;SDS011;35016;55.674;37.468;2023-05-15T07:27:30;8.85;;;2.85;;
49177;SDS011;35016;55.674;37.468;2023-05-15T07:29:57;3.78;;;1.20;;
49177;SDS011;35016;55.674;37.468;2023-05-15T07:32:25;4.95;;;1.75;;
49177;SDS011;35016;55.674;37.468;2023-05-15T07:34:52;7.30;;;1.95;;
49177;SDS011;35016;55.674;37.468;2023-05-15T07:37:19;4.22;;;1.52;;
49177;SDS011;35016;55.674;37.468;2023-05-15T07:39:48;6.45;;;1.80;;
49177;SDS011;35016;55.674;37.468;2023-05-15T07:42:15;5.05;;;2.00;;
49177;SDS011;35016;55.674;37.468;2023-05-15T07:44:43;8.20;;;1.60;;
49177;SDS011;35016;55.674;37.468;2023-05-15T07:47:13;5.07;;;1.48;;
49177;SDS011;35016;55.674;37.468;2023-05-15T07:49:40;5.72;;;2.00;;
49177;SDS011;35016;55.674;37.468;2023-05-15T07:52:07;3.70;;;1.23;;
49177;SDS011;35016;55.674;37.468;2023-05-15T07:54:34;4.13;;;1.02;;
49177;SDS011;35016;55.674;37.468;2023-05-15T07:57:01;5.95;;;1.70;;
49177;SDS011;35016;55.674;37.468;2023-05-15T07:59:28;6.05;;;1.80;;
49177;SDS011;35016;55.674;37.468;2023-05-15T08:01:56;3.13;;;1.42;;
49177;SDS011;35016;55.674;37.468;2023-05-15T08:04:23;4.97;;;1.45;;
49177;SDS011;35016;55.674;37.468;2023-05-15T08:06:51;4.90;;;1.60;;
49177;SDS011;35016;55.674;37.468;2023-05-15T08:09:18;4.93;;;1.40;;
49177;SDS011;35016;55.674;37.468;2023-05-15T08:11:45;4.25;;;1.58;;
49177;SDS011;35016;55.674;37.468;2023-05-15T08:14:12;4.00;;;1.38;;
49177;SDS011;35016;55.674;37.468;2023-05-15T08:16:39;5.65;;;2.10;;
49177;SDS011;35016;55.674;37.468;2023-05-15T08:19:06;5.03;;;1.60;;
49177;SDS011;35016;55.674;37.468;2023-05-15T08:21:33;5.32;;;2.13;;
49177;SDS011;35016;55.674;37.468;2023-05-15T08:24:01;2.85;;;1.13;;
49177;SDS011;35016;55.674;37.468;2023-05-15T08:26:28;5.80;;;1.85;;
49177;SDS011;35016;55.674;37.468;2023-05-15T08:28:55;4.57;;;1.83;;
49177;SDS011;35016;55.674;37.468;2023-05-15T08:31:22;5.28;;;1.80;;
49177;SDS011;35016;55.674;37.468;2023-05-15T08:33:49;4.32;;;1.30;;
49177;SDS011;35016;55.674;37.468;2023-05-15T08:36:16;5.57;;;1.85;;
49177;SDS011;35016;55.674;37.468;2023-05-15T08:38:45;7.35;;;2.35;;
49177;SDS011;35016;55.674;37.468;2023-05-15T08:41:18;5.78;;;1.92;;
49177;SDS011;35016;55.674;37.468;2023-05-15T08:44:07;5.20;;;1.67;;
49177;SDS011;35016;55.674;37.468;2023-05-15T08:46:36;4.78;;;1.67;;
49177;SDS011;35016;55.674;37.468;2023-05-15T08:49:08;5.28;;;1.40;;
49177;SDS011;35016;55.674;37.468;2023-05-15T08:51:41;4.40;;;1.65;;
49177;SDS011;35016;55.674;37.468;2023-05-15T08:54:08;6.80;;;1.48;;
49177;SDS011;35016;55.674;37.468;2023-05-15T08:56:35;5.07;;;1.60;;
49177;SDS011;35016;55.674;37.468;2023-05-15T08:59:03;5.80;;;1.77;;
49177;SDS011;35016;55.674;37.468;2023-05-15T09:01:30;7.40;;;1.90;;
49177;SDS011;35016;55.674;37.468;2023-05-15T09:04:01;6.05;;;1.92;;
49177;SDS011;35016;55.674;37.468;2023-05-15T09:06:29;4.32;;;1.30;;
49177;SDS011;35016;55.674;37.468;2023-05-15T09:08:59;5.47;;;1.55;;
49177;SDS011;35016;55.674;37.468;2023-05-15T09:11:28;10.32;;;2.15;;
49177;SDS011;35016;55.674;37.468;2023-05-15T09:13:59;4.88;;;1.48;;
49177;SDS011;35016;55.674;37.468;2023-05-15T09:16:27;6.60;;;2.22;;
49177;SDS011;35016;55.674;37.468;2023-05-15T09:18:54;5.15;;;2.00;;
49177;SDS011;35016;55.674;37.468;2023-05-15T09:21:25;4.43;;;1.63;;
49177;SDS011;35016;55.674;37.468;2023-05-15T09:23:55;4.88;;;1.55;;
49177;SDS011;35016;55.674;37.468;2023-05-15T09:26:43;4.68;;;1.65;;
49177;SDS011;35016;55.674;37.468;2023-05-15T09:29:14;5.80;;;1.88;;
49177;SDS011;35016;55.674;37.468;2023-05-15T09:31:47;3.40;;;1.10;;
49177;SDS011;35016;55.674;37.468;2023-05-15T09:34:14;4.88;;;1.52;;
49177;SDS011;35016;55.674;37.468;2023-05-15T09:36:46;6.18;;;1.48;;
49177;SDS011;35016;55.674;37.468;2023-05-15T09:39:16;6.32;;;1.83;;
49177;SDS011;35016;55.674;37.468;2023-05-15T09:41:51;6.53;;;2.15;;
49177;SDS011;35016;55.674;37.468;2023-05-15T09:44:25;5.97;;;1.88;;
49177;SDS011;35016;55.674;37.468;2023-05-15T09:46:52;5.20;;;2.00;;
49177;SDS011;35016;55.674;37.468;2023-05-15T09:49:20;5.15;;;1.70;;
49177;SDS011;35016;55.674;37.468;2023-05-15T09:51:47;5.55;;;2.28;;
49177;SDS011;35016;55.674;37.468;2023-05-15T09:54:17;5.03;;;1.40;;
49177;SDS011;35016;55.674;37.468;2023-05-15T09:56:44;2.80;;;1.08;;
49177;SDS011;35016;55.674;37.468;2023-05-15T09:59:13;5.63;;;1.67;;
49177;SDS011;35016;55.674;37.468;2023-05-15T10:01:45;4.13;;;1.50;;
49177;SDS011;35016;55.674;37.468;2023-05-15T10:04:12;4.63;;;1.27;;
49177;SDS011;35016;55.674;37.468;2023-05-15T10:06:40;3.72;;;1.30;;
49177;SDS011;35016;55.674;37.468;2023-05-15T10:09:09;4.63;;;1.83;;
49177;SDS011;35016;55.674;37.468;2023-05-15T10:11:38;4.82;;;1.80;;
49177;SDS011;35016;55.674;37.468;2023-05-15T10:14:10;6.82;;;1.65;;
49177;SDS011;35016;55.674;37.468;2023-05-15T10:16:39;4.85;;;1.80;;
49177;SDS011;35016;55.674;37.468;2023-05-15T10:19:08;5.47;;;1.80;;
49177;SDS011;35016;55.674;37.468;2023-05-15T10:21:36;5.40;;;1.50;;
49177;SDS011;35016;55.674;37.468;2023-05-15T10:24:10;6.22;;;1.88;;
49177;SDS011;35016;55.674;37.468;2023-05-15T10:26:41;5.75;;;1.90;;
49177;SDS011;35016;55.674;37.468;2023-05-15T10:29:10;4.25;;;1.38;;
49177;SDS011;35016;55.674;37.468;2023-05-15T10:31:39;4.72;;;1.48;;
49177;SDS011;35016;55.674;37.468;2023-05-15T10:34:07;6.25;;;1.90;;
49177;SDS011;35016;55.674;37.468;2023-05-15T10:36:35;6.13;;;1.85;;
49177;SDS011;35016;55.674;37.468;2023-05-15T10:39:04;15.63;;;2.05;;
49177;SDS011;35016;55.674;37.468;2023-05-15T10:41:34;5.80;;;2.00;;
49177;SDS011;35016;55.674;37.468;2023-05-15T10:44:02;8.15;;;1.50;;
49177;SDS011;35016;55.674;37.468;2023-05-15T10:46:30;4.65;;;1.67;;
49177;SDS011;35016;55.674;37.468;2023-05-15T10:49:00;6.20;;;1.98;;
49177;SDS011;35016;55.674;37.468;2023-05-15T10:51:28;5.57;;;1.73;;
49177;SDS011;35016;55.674;37.468;2023-05-15T10:53:58;4.68;;;1.55;;
49177;SDS011;35016;55.674;37.468;2023-05-15T10:56:30;4.65;;;1.58;;
49177;SDS011;35016;55.674;37.468;2023-05-15T10:59:09;4.03;;;1.30;;
49177;SDS011;35016;55.674;37.468;2023-05-15T11:01:38;3.42;;;1.33;;
49177;SDS011;35016;55.674;37.468;2023-05-15T11:04:13;6.03;;;1.83;;
49177;SDS011;35016;55.674;37.468;2023-05-15T11:06:42;5.40;;;1.70;;
49177;SDS011;35016;55.674;37.468;2023-05-15T11:14:18;4.50;;;2.03;;
49177;SDS011;35016;55.674;37.468;2023-05-15T11:19:23;4.30;;;1.58;;
49177;SDS011;35016;55.674;37.468;2023-05-15T11:24:29;4.88;;;1.58;;
49177;SDS011;35016;55.674;37.468;2023-05-15T11:26:58;4.80;;;1.52;;
49177;SDS011;35016;55.674;37.468;2023-05-15T11:29:29;4.40;;;1.45;;
49177;SDS011;35016;55.674;37.468;2023-05-15T11:32:03;4.25;;;1.50;;
49177;SDS011;35016;55.674;37.468;2023-05-15T11:35:17;5.35;;;1.70;;
49177;SDS011;35016;55.674;37.468;2023-05-15T11:37:45;3.92;;;1.50;;
49177;SDS011;35016;55.674;37.468;2023-05-15T11:40:21;3.70;;;1.48;;
49177;SDS011;35016;55.674;37.468;2023-05-15T11:48:36;4.88;;;2.00;;
49177;SDS011;35016;55.674;37.468;2023-05-15T11:51:21;6.30;;;1.45;;
49177;SDS011;35016;55.674;37.468;2023-05-15T11:53:52;6.95;;;1.42;;
49177;SDS011;35016;55.674;37.468;2023-05-15T11:56:23;4.63;;;1.60;;
49177;SDS011;35016;55.674;37.468;2023-05-15T11:58:54;5.50;;;1.45;;
49177;SDS011;35016;55.674;37.468;2023-05-15T12:01:23;5.53;;;1.77;;
49177;SDS011;35016;55.674;37.468;2023-05-15T12:03:51;5.13;;;1.60;;
49177;SDS011;35016;55.674;37.468;2023-05-15T12:06:20;9.48;;;2.13;;
49177;SDS011;35016;55.674;37.468;2023-05-15T12:08:51;6.22;;;2.17;;
49177;SDS011;35016;55.674;37.468;2023-05-15T12:11:23;4.93;;;1.63;;
49177;SDS011;35016;55.674;37.468;2023-05-15T12:13:51;4.05;;;1.23;;
49177;SDS011;35016;55.674;37.468;2023-05-15T12:16:23;6.53;;;1.50;;
49177;SDS011;35016;55.674;37.468;2023-05-15T12:18:52;5.22;;;1.55;;
49177;SDS011;35016;55.674;37.468;2023-05-15T12:21:19;4.80;;;1.80;;
49177;SDS011;35016;55.674;37.468;2023-05-15T12:23:50;5.20;;;1.48;;
49177;SDS011;35016;55.674;37.468;2023-05-15T12:26:21;7.25;;;2.05;;
49177;SDS011;35016;55.674;37.468;2023-05-15T12:28:50;5.07;;;2.00;;
49177;SDS011;35016;55.674;37.468;2023-05-15T12:31:18;6.38;;;2.35;;
49177;SDS011;35016;55.674;37.468;2023-05-15T12:33:46;7.18;;;1.67;;
49177;SDS011;35016;55.674;37.468;2023-05-15T12:36:13;9.90;;;2.28;;
49177;SDS011;35016;55.674;37.468;2023-05-15T12:38:42;5.82;;;1.65;;
49177;SDS011;35016;55.674;37.468;2023-05-15T12:41:09;5.72;;;1.80;;
49177;SDS011;35016;55.674;37.468;2023-05-15T12:43:38;5.90;;;1.48;;
49177;SDS011;35016;55.674;37.468;2023-05-15T12:46:06;8.48;;;1.80;;
49177;SDS011;35016;55.674;37.468;2023-05-15T12:48:34;4.80;;;1.40;;
49177;SDS011;35016;55.674;37.468;2023-05-15T12:51:07;5.63;;;1.88;;
49177;SDS011;35016;55.674;37.468;2023-05-15T12:53:35;6.97;;;2.28;;
49177;SDS011;35016;55.674;37.468;2023-05-15T12:56:06;4.18;;;1.40;;
49177;SDS011;35016;55.674;37.468;2023-05-15T12:58:35;6.65;;;1.67;;
49177;SDS011;35016;55.674;37.468;2023-05-15T13:01:04;5.28;;;1.42;;
49177;SDS011;35016;55.674;37.468;2023-05-15T13:03:32;6.60;;;2.15;;
49177;SDS011;35016;55.674;37.468;2023-05-15T13:06:00;5.47;;;1.77;;
49177;SDS011;35016;55.674;37.468;2023-05-15T13:08:29;7.22;;;1.48;;
49177;SDS011;35016;55.674;37.468;2023-05-15T13:10:57;5.60;;;2.10;;
49177;SDS011;35016;55.674;37.468;2023-05-15T13:13:47;3.90;;;1.60;;
49177;SDS011;35016;55.674;37.468;2023-05-15T13:16:16;4.97;;;1.70;;
49177;SDS011;35016;55.674;37.468;2023-05-15T13:18:47;4.53;;;1.58;;
49177;SDS011;35016;55.674;37.468;2023-05-15T13:21:15;4.55;;;1.60;;
49177;SDS011;35016;55.674;37.468;2023-05-15T13:23:42;5.53;;;1.73;;
49177;SDS011;35016;55.674;37.468;2023-05-15T13:26:10;4.18;;;1.48;;
49177;SDS011;35016;55.674;37.468;2023-05-15T13:28:37;6.00;;;1.73;;
49177;SDS011;35016;55.674;37.468;2023-05-15T13:31:04;6.85;;;2.10;;
49177;SDS011;35016;55.674;37.468;2023-05-15T13:33:32;4.88;;;1.67;;
49177;SDS011;35016;55.674;37.468;2023-05-15T13:36:01;4.55;;;1.52;;
49177;SDS011;35016;55.674;37.468;2023-05-15T13:38:28;6.20;;;1.73;;
49177;SDS011;35016;55.674;37.468;2023-05-15T13:40:55;3.78;;;1.48;;
49177;SDS011;35016;55.674;37.468;2023-05-15T13:43:23;5.35;;;2.28;;
49177;SDS011;35016;55.674;37.468;2023-05-15T13:45:52;5.03;;;1.73;;
49177;SDS011;35016;55.674;37.468;2023-05-15T13:48:19;6.65;;;1.73;;
49177;SDS011;35016;55.674;37.468;2023-05-15T13:50:47;6.65;;;2.13;;
49177;SDS011;35016;55.674;37.468;2023-05-15T13:53:14;6.78;;;1.83;;
49177;SDS011;35016;55.674;37.468;2023-05-15T13:55:44;5.82;;;1.98;;
49177;SDS011;35016;55.674;37.468;2023-05-15T13:58:12;6.40;;;2.13;;
49177;SDS011;35016;55.674;37.468;2023-05-15T14:00:42;4.15;;;1.52;;
49177;SDS011;35016;55.674;37.468;2023-05-15T14:03:10;3.90;;;1.55;;
49177;SDS011;35016;55.674;37.468;2023-05-15T14:05:40;6.53;;;1.92;;
49177;SDS011;35016;55.674;37.468;2023-05-15T14:08:08;7.55;;;2.38;;
49177;SDS011;35016;55.674;37.468;2023-05-15T14:10:35;4.85;;;1.42;;
49177;SDS011;35016;55.674;37.468;2023-05-15T14:16:06;6.18;;;1.90;;
49177;SDS011;35016;55.674;37.468;2023-05-15T14:18:33;7.22;;;2.72;;
49177;SDS011;35016;55.674;37.468;2023-05-15T14:21:00;4.00;;;1.20;;
49177;SDS011;35016;55.674;37.468;2023-05-15T14:23:28;5.00;;;1.95;;
49177;SDS011;35016;55.674;37.468;2023-05-15T14:25:55;10.45;;;2.65;;
49177;SDS011;35016;55.674;37.468;2023-05-15T14:28:22;5.13;;;1.60;;
49177;SDS011;35016;55.674;37.468;2023-05-15T14:30:53;6.90;;;1.95;;
49177;SDS011;35016;55.674;37.468;2023-05-15T14:33:20;4.43;;;1.45;;
49177;SDS011;35016;55.674;37.468;2023-05-15T14:35:48;5.15;;;1.55;;
49177;SDS011;35016;55.674;37.468;2023-05-15T14:38:16;5.93;;;2.17;;
49177;SDS011;35016;55.674;37.468;2023-05-15T14:40:43;7.82;;;2.78;;
49177;SDS011;35016;55.674;37.468;2023-05-15T14:43:10;6.57;;;2.30;;
49177;SDS011;35016;55.674;37.468;2023-05-15T14:45:37;5.80;;;1.92;;
49177;SDS011;35016;55.674;37.468;2023-05-15T14:48:04;5.82;;;2.03;;
49177;SDS011;35016;55.674;37.468;2023-05-15T14:50:31;6.18;;;2.10;;
49177;SDS011;35016;55.674;37.468;2023-05-15T14:52:58;6.63;;;2.25;;
49177;SDS011;35016;55.674;37.468;2023-05-15T14:55:25;6.40;;;2.10;;
49177;SDS011;35016;55.674;37.468;2023-05-15T14:57:52;4.63;;;1.73;;
49177;SDS011;35016;55.674;37.468;2023-05-15T15:00:20;5.53;;;2.00;;
49177;SDS011;35016;55.674;37.468;2023-05-15T15:02:47;6.03;;;2.47;;
49177;SDS011;35016;55.674;37.468;2023-05-15T15:05:14;4.82;;;1.50;;
49177;SDS011;35016;55.674;37.468;2023-05-15T15:10:33;7.70;;;2.60;;
49177;SDS011;35016;55.674;37.468;2023-05-15T15:13:05;7.28;;;2.95;;
49177;SDS011;35016;55.674;37.468;2023-05-15T15:15:35;7.80;;;2.20;;
49177;SDS011;35016;55.674;37.468;2023-05-15T15:18:03;7.40;;;1.95;;
49177;SDS011;35016;55.674;37.468;2023-05-15T15:20:30;6.00;;;2.00;;
49177;SDS011;35016;55.674;37.468;2023-05-15T15:22:57;7.95;;;2.90;;
49177;SDS011;35016;55.674;37.468;2023-05-15T15:25:25;7.65;;;2.08;;